Time;durP1;ratioP1;P1;durP2;ratioP2;P2;SDS_P1;SDS_P2;PMS_P1;PMS_P2;Temp;Humidity;BMP_temperature;BMP_pressure;BME280_temperature;BME280_humidity;BME280_pressure;Samples;Min_cycle;Max_cycle;Signal;HPM_P1;HPM_P2
2022/01/21 00:01:15;;;;;;;10.15;4.55;;;;;;;-1.24;81.72;141974.38;1699509;84;21059;-60
2022/01/21 00:03:43;;;;;;;9.08;4.67;;;;;;;-1.28;81.83;141963.19;1698639;84;21006;-61
2022/01/21 00:06:10;;;;;;;10.28;5.40;;;;;;;-1.28;81.87;141964.42;1701111;84;21050;-61
2022/01/21 00:08:40;;;;;;;11.28;5.47;;;;;;;-1.29;81.73;141960.72;1703292;84;21059;-60
2022/01/21 00:11:10;;;;;;;9.83;5.27;;;;;;;-1.30;81.63;141959.44;1697200;84;21095;-60
2022/01/21 00:13:38;;;;;;;14.18;5.20;;;;;;;-1.29;81.56;141960.72;1703585;84;21015;-59
2022/01/21 00:16:12;;;;;;;9.18;4.50;;;;;;;-1.28;81.56;141964.42;1670726;86;21048;-60
2022/01/21 00:18:51;;;;;;;9.93;5.25;;;;;;;-1.30;81.31;141959.44;1709526;83;21041;-61
2022/01/21 00:32:15;;;;;;;9.00;4.33;;;;;;;-1.36;80.57;141944.56;1696845;84;21086;-59
2022/01/21 00:34:42;;;;;;;12.80;4.87;;;;;;;-1.32;80.12;141954.52;1707502;84;21034;-61
2022/01/21 00:37:09;;;;;;;13.90;4.95;;;;;;;-1.32;79.57;141954.52;1666120;86;21532;-60
2022/01/21 00:39:36;;;;;;;8.88;4.40;;;;;;;-1.31;78.75;141956.98;1666801;85;21040;-59
2022/01/21 00:42:13;;;;;;;10.08;4.87;;;;;;;-1.36;78.03;141944.56;1665814;86;21513;-60
2022/01/21 00:44:35;;;;;;;12.67;4.80;;;;;;;-1.42;77.98;141930.92;1706189;82;21020;-60
2022/01/21 00:47:03;;;;;;;10.85;4.75;;;;;;;-1.45;77.86;141923.48;1700852;84;21245;-61
2022/01/21 00:49:31;;;;;;;10.40;4.30;;;;;;;-1.42;77.78;141929.69;1697765;84;21055;-61
2022/01/21 00:51:58;;;;;;;11.48;4.70;;;;;;;-1.37;77.57;141942.11;1697347;84;20996;-61
2022/01/21 00:54:25;;;;;;;12.07;4.78;;;;;;;-1.32;77.46;141954.52;1708695;83;21054;-59
2022/01/21 00:56:52;;;;;;;11.35;4.72;;;;;;;-1.28;77.27;141964.42;1698660;84;21175;-61
2022/01/21 00:59:18;;;;;;;12.05;4.58;;;;;;;-1.25;77.00;141971.86;1693537;84;21027;-59
2022/01/21 01:01:45;;;;;;;10.45;4.50;;;;;;;-1.24;76.78;141974.38;1709936;83;21034;-60
2022/01/21 01:04:14;;;;;;;8.75;3.95;;;;;;;-1.24;76.62;141973.14;1692969;83;21577;-59
2022/01/21 01:06:41;;;;;;;10.95;4.33;;;;;;;-1.27;76.47;141966.94;1704813;83;21599;-61
2022/01/21 01:09:08;;;;;;;8.53;3.98;;;;;;;-1.25;76.31;141970.63;1665042;85;21561;-60
2022/01/21 01:22:25;;;;;;;9.38;4.25;;;;;;;-1.43;75.68;141927.19;1667324;85;21602;-60
2022/01/21 01:30:12;;;;;;;17.77;4.33;;;;;;;-1.52;75.21;141906.09;1662230;85;21053;-60
2022/01/21 01:32:40;;;;;;;8.93;4.15;;;;;;;-1.55;75.24;141898.66;1641274;86;21057;-62
2022/01/21 01:35:11;;;;;;;10.20;4.00;;;;;;;-1.51;75.01;141908.56;1675658;84;21052;-60
2022/01/21 01:38:08;;;;;;;9.70;4.22;;;;;;;-1.54;74.65;141902.36;1661153;86;21028;-61
2022/01/21 01:40:33;;;;;;;7.35;3.75;;;;;;;-1.61;74.55;141884.97;1704795;82;21078;-61
2022/01/21 01:49:24;;;;;;;8.15;4.15;;;;;;;-1.65;74.64;141875.08;1697171;83;21127;-62
2022/01/21 01:51:12;;;;;;;10.20;4.28;;;;;;;-1.85;74.52;141825.44;1657706;85;21067;-60
2022/01/21 01:53:44;;;;;;;8.95;3.35;;;;;;;-1.92;74.56;141808.06;1705193;83;21000;-61
2022/01/21 01:56:17;;;;;;;10.18;4.00;;;;;;;-1.97;74.42;141798.11;1693545;84;21514;-62
2022/01/21 01:58:44;;;;;;;11.60;5.00;;;;;;;-2.01;74.30;141788.22;1704312;84;21579;-61
2022/01/21 02:01:11;;;;;;;11.93;4.40;;;;;;;-2.06;74.36;141775.81;1671841;86;21061;-60
2022/01/21 02:03:38;;;;;;;8.55;3.98;;;;;;;-2.07;74.31;141772.06;1670711;86;21061;-61
2022/01/21 02:06:05;;;;;;;12.50;4.55;;;;;;;-2.11;74.22;141762.12;1661988;85;21077;-60
2022/01/21 02:08:32;;;;;;;9.85;4.05;;;;;;;-2.14;74.14;141754.69;1703984;83;21134;-59
2022/01/21 02:10:59;;;;;;;14.90;4.70;;;;;;;-2.20;74.08;141742.28;1664255;86;21047;-58
2022/01/21 02:13:31;;;;;;;12.60;6.30;;;;;;;-2.23;74.09;141734.84;1700271;84;21055;-60
2022/01/21 02:16:12;;;;;;;15.38;4.72;;;;;;;-2.27;74.12;141723.69;1697070;84;21067;-60
2022/01/21 02:21:35;;;;;;;11.80;4.08;;;;;;;-2.36;74.24;141702.61;1704351;83;21040;-58
2022/01/21 02:24:11;;;;;;;10.05;4.22;;;;;;;-2.38;74.15;141697.64;1731928;82;21040;-58
2022/01/21 02:26:40;;;;;;;9.98;4.28;;;;;;;-2.43;74.26;141686.47;1719806;82;21064;-59
2022/01/21 02:29:10;;;;;;;13.60;4.90;;;;;;;-2.47;74.28;141676.58;1733998;82;21090;-59
2022/01/21 02:31:40;;;;;;;18.32;4.42;;;;;;;-2.48;74.45;141674.08;1739699;82;21032;-59
2022/01/21 02:34:09;;;;;;;11.90;3.95;;;;;;;-2.43;74.68;141685.25;1723022;82;21016;-59
2022/01/21 02:36:36;;;;;;;9.83;4.28;;;;;;;-2.35;74.62;141705.08;1731818;82;21009;-59
2022/01/21 02:39:05;;;;;;;13.65;4.53;;;;;;;-2.28;74.51;141722.45;1740455;82;21325;-59
2022/01/21 02:41:32;;;;;;;12.28;5.53;;;;;;;-2.19;74.49;141743.52;1731674;82;21185;-59
2022/01/21 02:43:59;;;;;;;17.25;6.35;;;;;;;-2.11;74.27;141763.41;1736383;82;21491;-59
2022/01/21 02:46:27;;;;;;;15.53;5.15;;;;;;;-2.05;74.24;141777.03;1721702;82;21020;-59
2022/01/21 02:48:55;;;;;;;11.90;6.08;;;;;;;-2.00;74.19;141790.67;1736833;82;21522;-58
2022/01/21 02:51:22;;;;;;;10.28;5.17;;;;;;;-1.98;73.97;141794.41;1739811;82;21104;-59
2022/01/21 02:56:21;;;;;;;10.48;4.47;;;;;;;-2.01;73.83;141786.94;1733319;82;21058;-58
2022/01/21 02:58:49;;;;;;;10.43;4.55;;;;;;;-2.05;73.94;141777.03;1733527;82;21044;-57
2022/01/21 03:01:18;;;;;;;13.10;4.58;;;;;;;-2.06;73.89;141774.53;1739497;82;20985;-59
2022/01/21 03:03:47;;;;;;;13.75;4.97;;;;;;;-2.13;73.90;141758.44;1738374;82;20988;-59
2022/01/21 03:06:19;;;;;;;13.05;5.10;;;;;;;-2.13;74.10;141757.20;1728537;82;20971;-59
2022/01/21 03:08:49;;;;;;;10.70;5.03;;;;;;;-2.10;74.00;141765.86;1718323;82;20997;-59
2022/01/21 03:11:16;;;;;;;11.70;5.25;;;;;;;-2.04;73.92;141780.73;1733046;82;20968;-59
2022/01/21 03:13:45;;;;;;;11.75;5.45;;;;;;;-1.99;73.77;141793.14;1735136;82;20977;-58
2022/01/21 03:16:12;;;;;;;11.18;3.70;;;;;;;-1.97;73.54;141798.11;1733891;82;21047;-59
2022/01/21 03:18:39;;;;;;;9.70;4.62;;;;;;;-1.96;73.22;141799.34;1728557;82;20985;-58
2022/01/21 03:21:09;;;;;;;11.20;3.98;;;;;;;-2.00;73.14;141789.44;1739583;82;21012;-61
2022/01/21 03:23:38;;;;;;;11.10;5.17;;;;;;;-2.00;73.22;141790.67;1730429;82;20991;-59
2022/01/21 03:26:05;;;;;;;10.38;3.70;;;;;;;-1.97;73.19;141798.11;1712728;83;21031;-60
2022/01/21 03:28:41;;;;;;;8.08;3.90;;;;;;;-1.95;73.11;141800.63;1726556;82;21474;-59
2022/01/21 03:31:08;;;;;;;13.30;5.22;;;;;;;-1.93;73.08;141806.83;1733352;82;20967;-60
2022/01/21 03:33:35;;;;;;;9.75;4.45;;;;;;;-1.89;73.02;141815.48;1706269;83;20997;-60
2022/01/21 03:36:03;;;;;;;11.55;4.33;;;;;;;-1.87;72.96;141821.69;1712973;82;20953;-60
2022/01/21 03:38:30;;;;;;;9.43;5.10;;;;;;;-1.88;73.04;141819.23;1707070;82;20991;-58
2022/01/21 03:40:56;;;;;;;10.95;4.12;;;;;;;-1.90;73.05;141814.25;1661611;85;21451;-60
2022/01/21 03:43:24;;;;;;;7.67;3.95;;;;;;;-1.96;73.27;141799.34;1709559;82;20973;-59
2022/01/21 03:45:53;;;;;;;7.85;3.72;;;;;;;-2.07;73.58;141772.06;1727854;82;20941;-59
2022/01/21 03:48:20;;;;;;;10.30;4.03;;;;;;;-2.13;73.93;141758.44;1729254;82;20988;-59
2022/01/21 03:50:49;;;;;;;12.75;4.47;;;;;;;-2.16;74.28;141749.72;1719984;82;21048;-58
2022/01/21 03:53:16;;;;;;;8.80;4.42;;;;;;;-2.20;74.57;141742.28;1739494;82;20977;-59
2022/01/21 03:55:45;;;;;;;10.25;3.87;;;;;;;-2.25;74.90;141728.66;1731241;82;21490;-59
2022/01/21 03:58:13;;;;;;;10.58;4.33;;;;;;;-2.28;75.18;141722.45;1728015;82;21073;-59
2022/01/21 04:00:54;;;;;;;10.45;4.50;;;;;;;-2.29;75.45;141718.70;1734676;82;21016;-58
2022/01/21 04:03:23;;;;;;;11.20;5.22;;;;;;;-2.31;75.78;141713.78;1726972;82;21168;-59
2022/01/21 04:05:52;;;;;;;13.00;5.45;;;;;;;-2.36;76.22;141701.39;1720002;82;21450;-61
2022/01/21 04:08:19;;;;;;;10.38;5.40;;;;;;;-2.39;76.51;141695.19;1725096;82;21040;-59
2022/01/21 04:10:48;;;;;;;12.37;5.30;;;;;;;-2.42;76.81;141688.98;1720951;82;20991;-59
2022/01/21 04:13:19;;;;;;;10.53;4.65;;;;;;;-2.46;77.40;141677.81;1736186;82;20969;-58
2022/01/21 04:15:51;;;;;;;12.18;4.65;;;;;;;-2.51;77.98;141666.64;1719865;82;21506;-57
2022/01/21 04:18:19;;;;;;;14.47;5.10;;;;;;;-2.52;78.61;141664.19;1731483;82;20988;-58
2022/01/21 04:20:48;;;;;;;10.93;5.30;;;;;;;-2.50;79.22;141669.09;1725036;82;21000;-58
2022/01/21 04:23:19;;;;;;;9.93;4.35;;;;;;;-2.48;79.70;141674.08;1731551;82;21020;-58
2022/01/21 04:25:46;;;;;;;9.35;5.28;;;;;;;-2.43;80.01;141686.47;1740055;82;20965;-58
2022/01/21 04:28:13;;;;;;;10.85;4.95;;;;;;;-2.37;80.27;141700.11;1728828;82;20980;-60
2022/01/21 04:30:41;;;;;;;11.55;5.08;;;;;;;-2.33;80.54;141710.05;1721038;82;21526;-60
2022/01/21 04:33:08;;;;;;;12.07;5.47;;;;;;;-2.34;80.87;141707.58;1729703;82;21510;-58
2022/01/21 04:35:36;;;;;;;10.80;4.80;;;;;;;-2.30;81.69;141717.47;1729918;82;21045;-60
2022/01/21 04:38:06;;;;;;;13.30;4.67;;;;;;;-2.24;82.13;141732.39;1721170;82;20976;-60
2022/01/21 04:40:42;;;;;;;14.55;5.58;;;;;;;-2.26;82.63;141727.42;1741099;82;21443;-60
2022/01/21 04:48:37;;;;;;;20.70;5.80;;;;;;;-2.40;84.29;141692.67;1733553;82;21024;-59
2022/01/21 04:51:20;;;;;;;14.03;5.45;;;;;;;-2.49;84.95;141670.38;1714843;82;20977;-60
2022/01/21 04:53:48;;;;;;;11.25;6.35;;;;;;;-2.58;85.55;141648.05;1724160;82;21029;-62
2022/01/21 04:56:20;;;;;;;11.20;5.08;;;;;;;-2.65;86.32;141631.91;1718057;82;20993;-60
2022/01/21 04:58:48;;;;;;;12.85;5.60;;;;;;;-2.64;86.83;141634.41;1729219;82;21017;-59
2022/01/21 05:01:14;;;;;;;12.95;4.67;;;;;;;-2.64;87.34;141634.41;1740086;82;21028;-60
2022/01/21 05:03:44;;;;;;;10.28;4.97;;;;;;;-2.63;87.49;141636.88;1739152;82;20988;-60
2022/01/21 05:06:11;;;;;;;14.43;4.97;;;;;;;-2.61;87.94;141641.84;1737069;82;21000;-59
2022/01/21 05:11:07;;;;;;;11.22;5.35;;;;;;;-2.57;88.12;141651.78;1734226;82;20991;-58
2022/01/21 05:13:39;;;;;;;12.18;4.53;;;;;;;-2.51;88.36;141666.64;1737322;82;21455;-58
2022/01/21 05:16:18;;;;;;;12.88;5.28;;;;;;;-2.44;88.51;141682.78;1715799;82;21439;-58
2022/01/21 05:18:37;;;;;;;12.30;5.28;;;;;;;-2.41;88.44;141690.22;1738557;82;20964;-59
2022/01/21 05:21:05;;;;;;;12.93;4.87;;;;;;;-2.38;88.79;141697.64;1683326;82;21485;-59
2022/01/21 05:23:43;;;;;;;15.85;5.50;;;;;;;-2.34;88.80;141707.58;1732624;82;21020;-57
2022/01/21 05:26:12;;;;;;;13.28;5.00;;;;;;;-2.28;88.90;141722.45;1740163;82;21012;-60
2022/01/21 05:28:39;;;;;;;11.70;5.25;;;;;;;-2.21;88.72;141738.59;1739850;82;20982;-60
2022/01/21 05:31:16;;;;;;;10.30;5.00;;;;;;;-2.16;88.66;141751.00;1738750;82;21031;-60
2022/01/21 05:33:53;;;;;;;13.62;5.12;;;;;;;-2.12;88.47;141760.89;1735142;82;21467;-60
2022/01/21 05:36:40;;;;;;;11.50;4.78;;;;;;;-2.10;88.40;141765.86;1735427;82;21004;-60
2022/01/21 05:39:21;;;;;;;16.48;5.80;;;;;;;-2.09;88.63;141768.33;1738410;82;20960;-60
2022/01/21 05:41:52;;;;;;;11.55;6.47;;;;;;;-2.09;88.89;141768.33;1740981;82;20950;-57
2022/01/21 05:47:15;;;;;;;13.68;5.78;;;;;;;-2.07;89.56;141773.30;1735726;82;20969;-61
2022/01/21 05:49:49;;;;;;;10.25;5.47;;;;;;;-2.05;89.57;141778.27;1701191;82;20968;-58
2022/01/21 05:52:36;;;;;;;15.95;6.50;;;;;;;-2.04;89.50;141780.73;1694230;83;20997;-59
2022/01/21 05:55:00;;;;;;;13.22;5.65;;;;;;;-2.08;89.59;141770.84;1728198;81;21478;-63
2022/01/21 05:57:31;;;;;;;;;;;;;;;-2.07;89.77;141773.30;1729426;82;21533;-64
2022/01/21 05:59:58;;;;;;;11.65;5.65;;;;;;;-2.06;89.88;141775.81;1711628;83;20419;-61
2022/01/21 06:02:25;;;;;;;11.18;4.90;;;;;;;-2.03;89.72;141782.02;1713848;82;21004;-65
2022/01/21 06:04:52;;;;;;;11.00;5.05;;;;;;;-2.06;89.66;141775.81;1720498;82;20989;-60
2022/01/21 06:07:19;;;;;;;13.95;5.70;;;;;;;-2.04;89.76;141779.50;1734610;82;21056;-66
2022/01/21 06:09:47;;;;;;;23.87;6.25;;;;;;;-2.03;89.65;141783.23;1719626;83;21083;-57
2022/01/21 06:12:14;;;;;;;14.53;7.17;;;;;;;-2.03;89.98;141783.23;1720974;82;21452;-61
2022/01/21 06:14:40;;;;;;;20.70;6.53;;;;;;;-2.00;90.04;141790.67;1733120;82;20977;-59
2022/01/21 06:17:11;;;;;;;12.15;6.42;;;;;;;-1.95;90.02;141800.63;1723225;82;21016;-61
2022/01/21 06:19:38;;;;;;;32.33;16.23;;;;;;;-1.94;90.06;141803.08;1739363;82;21447;-58
2022/01/21 06:22:05;;;;;;;21.70;10.72;;;;;;;-1.85;91.48;141825.44;1731519;82;20965;-59
2022/01/21 06:24:32;;;;;;;17.12;8.90;;;;;;;-1.56;92.28;141897.38;1721740;82;20981;-60
2022/01/21 06:27:02;;;;;;;16.07;6.83;;;;;;;-1.28;91.27;141964.42;1738343;82;21020;-59
2022/01/21 06:29:28;;;;;;;20.82;9.38;;;;;;;-1.21;89.96;141980.58;1732868;82;20986;-61
2022/01/21 06:31:55;;;;;;;21.87;9.88;;;;;;;-1.12;90.75;142004.17;1691841;84;20996;-59
2022/01/21 06:34:21;;;;;;;22.60;9.70;;;;;;;-0.89;89.79;142060.06;1677379;85;21032;-60
2022/01/21 06:36:48;;;;;;;17.73;9.20;;;;;;;-0.63;89.08;142122.16;1701685;83;20991;-60
2022/01/21 06:39:15;;;;;;;12.47;6.22;;;;;;;-0.56;88.20;142138.28;1739117;82;20989;-62
2022/01/21 06:41:44;;;;;;;13.58;5.50;;;;;;;-0.67;86.03;142113.44;1731168;82;21522;-58
2022/01/21 06:44:11;;;;;;;13.62;6.30;;;;;;;-0.94;85.36;142047.64;1735001;81;21462;-60
2022/01/21 06:46:38;;;;;;;13.48;5.87;;;;;;;-1.20;85.62;141983.05;1729654;82;21133;-58
2022/01/21 06:49:05;;;;;;;14.05;6.28;;;;;;;-1.34;86.00;141949.55;1734977;82;21467;-61
2022/01/21 06:51:32;;;;;;;11.97;5.90;;;;;;;-1.40;86.31;141934.62;1739533;82;21511;-65
2022/01/21 06:53:59;;;;;;;13.78;6.17;;;;;;;-1.44;86.47;141924.72;1733148;82;21004;-59
2022/01/21 06:56:25;;;;;;;12.68;4.67;;;;;;;-1.43;86.54;141927.19;1728817;82;21010;-56
2022/01/21 06:58:52;;;;;;;10.10;5.12;;;;;;;-1.39;86.52;141937.13;1737293;82;21063;-58
2022/01/21 07:01:19;;;;;;;11.48;5.45;;;;;;;-1.37;86.61;141942.11;1733785;81;20992;-58
2022/01/21 07:03:46;;;;;;;11.75;5.70;;;;;;;-1.16;86.71;141994.22;1734534;82;21493;-57
2022/01/21 07:06:13;;;;;;;10.28;5.45;;;;;;;-0.93;86.18;142050.11;1739878;82;20927;-57
2022/01/21 07:08:40;;;;;;;15.38;6.10;;;;;;;-0.57;85.92;142135.81;1737161;82;20952;-58
2022/01/21 07:11:06;;;;;;;13.98;6.50;;;;;;;-0.26;84.51;142212.83;1697989;84;21456;-58
2022/01/21 07:13:34;;;;;;;14.78;6.33;;;;;;;-0.07;83.90;142257.59;1700463;84;21031;-58
2022/01/21 07:16:01;;;;;;;15.83;6.03;;;;;;;0.04;83.12;142284.92;1737752;82;21498;-58
2022/01/21 07:18:27;;;;;;;14.78;6.95;;;;;;;0.02;82.21;142279.94;1700657;84;20960;-56
2022/01/21 07:20:55;;;;;;;12.28;5.62;;;;;;;-0.10;82.22;142250.11;1703676;84;20974;-56
2022/01/21 07:23:22;;;;;;;14.00;5.65;;;;;;;-0.24;81.54;142217.81;1698058;84;21474;-55
2022/01/21 07:25:48;;;;;;;12.65;5.50;;;;;;;-0.42;82.07;142173.09;1689365;85;21021;-55
2022/01/21 07:28:15;;;;;;;11.63;5.60;;;;;;;-0.46;82.30;142163.13;1682753;85;20981;-55
2022/01/21 07:30:42;;;;;;;13.00;6.03;;;;;;;-0.45;82.86;142166.87;1740894;82;21008;-55
2022/01/21 07:33:09;;;;;;;12.78;5.87;;;;;;;-0.39;82.29;142180.53;1733550;82;21430;-55
2022/01/21 07:35:36;;;;;;;16.97;6.60;;;;;;;-0.42;82.06;142171.84;1745617;82;20967;-56
2022/01/21 07:38:03;;;;;;;14.60;6.10;;;;;;;-0.47;82.04;142160.66;1732462;82;20996;-56
2022/01/21 07:40:30;;;;;;;13.80;6.25;;;;;;;-0.49;82.22;142155.69;1741117;82;20999;-57
2022/01/21 07:42:57;;;;;;;11.35;5.55;;;;;;;-0.45;82.64;142166.87;1729270;82;20972;-55
2022/01/21 07:45:24;;;;;;;15.63;6.53;;;;;;;-0.35;82.71;142190.50;1735389;81;21447;-57
2022/01/21 07:47:51;;;;;;;13.83;5.90;;;;;;;-0.31;82.59;142199.17;1735251;82;20973;-55
2022/01/21 07:50:18;;;;;;;13.70;5.55;;;;;;;-0.26;82.50;142212.83;1722644;83;21027;-55
2022/01/21 07:52:45;;;;;;;10.90;5.00;;;;;;;-0.17;82.32;142232.75;1733466;82;21008;-55
2022/01/21 07:55:11;;;;;;;9.80;4.72;;;;;;;-0.14;81.29;142240.19;1739922;82;20956;-56
2022/01/21 07:57:39;;;;;;;12.58;5.25;;;;;;;-0.06;81.79;142260.06;1735606;82;20972;-56
2022/01/21 08:00:09;;;;;;;14.23;5.30;;;;;;;0.02;80.93;142279.94;1728467;82;20971;-56
2022/01/21 08:02:37;;;;;;;8.65;4.65;;;;;;;0.09;80.73;142296.13;1736129;82;21025;-56
2022/01/21 08:05:05;;;;;;;10.65;4.90;;;;;;;0.10;80.44;142299.88;1731601;83;21644;-56
2022/01/21 08:07:32;;;;;;;9.25;4.83;;;;;;;0.05;80.73;142287.44;1727720;82;21034;-56
2022/01/21 08:09:59;;;;;;;11.25;5.80;;;;;;;-0.06;80.58;142260.06;1737190;82;21474;-55
2022/01/21 08:12:26;;;;;;;10.10;4.60;;;;;;;-0.20;80.79;142225.25;1730587;82;20969;-56
2022/01/21 08:14:53;;;;;;;12.58;5.03;;;;;;;-0.31;81.38;142200.41;1714646;83;21024;-55
2022/01/21 08:17:19;;;;;;;14.00;5.12;;;;;;;-0.31;81.78;142199.17;1693088;83;21094;-55
2022/01/21 08:19:46;;;;;;;14.40;5.75;;;;;;;-0.29;81.17;142204.16;1725600;82;20963;-56
2022/01/21 08:22:13;;;;;;;20.60;6.30;;;;;;;-0.20;81.31;142225.25;1726887;82;20980;-62
2022/01/21 08:24:39;;;;;;;12.15;5.28;;;;;;;-0.08;80.84;142255.09;1736535;82;20961;-64
2022/01/21 08:27:07;;;;;;;10.95;5.70;;;;;;;-0.08;79.79;142256.31;1732235;81;21527;-57
2022/01/21 08:29:34;;;;;;;19.87;6.10;;;;;;;-0.05;79.51;142263.81;1711163;83;21054;-60
2022/01/21 08:32:01;;;;;;;16.95;5.72;;;;;;;-0.08;79.67;142255.09;1729101;82;21020;-57
2022/01/21 08:34:29;;;;;;;13.58;5.37;;;;;;;-0.11;79.74;142247.64;1737529;82;21036;-55
2022/01/21 08:36:56;;;;;;;11.78;5.22;;;;;;;-0.14;80.09;142241.44;1733483;82;21032;-55
2022/01/21 08:39:23;;;;;;;13.00;5.75;;;;;;;-0.16;80.40;142235.22;1733957;81;21499;-56
2022/01/21 08:41:50;;;;;;;16.00;6.60;;;;;;;-0.18;80.73;142230.23;1732398;81;21002;-57
2022/01/21 08:44:17;;;;;;;10.80;5.70;;;;;;;-0.17;81.44;142232.75;1732130;82;21031;-55
2022/01/21 08:46:44;;;;;;;10.68;5.25;;;;;;;-0.13;81.74;142242.66;1734019;81;21422;-55
2022/01/21 08:49:11;;;;;;;15.95;7.17;;;;;;;-0.11;82.16;142247.64;1735839;82;21000;-55
2022/01/21 08:51:50;;;;;;;16.25;5.78;;;;;;;-0.02;82.61;142270.03;1735832;82;21574;-55
2022/01/21 08:54:09;;;;;;;11.73;5.92;;;;;;;-0.05;82.31;142262.53;1728133;82;20969;-55
2022/01/21 08:56:36;;;;;;;33.30;9.08;;;;;;;-0.14;82.26;142240.19;1733529;82;21052;-56
2022/01/21 08:59:03;;;;;;;13.30;5.58;;;;;;;-0.25;81.91;142215.34;1735361;82;21550;-55
2022/01/21 09:01:30;;;;;;;15.55;6.58;;;;;;;-0.36;82.44;142187.97;1719701;82;20996;-54
2022/01/21 09:03:56;;;;;;;12.88;5.97;;;;;;;-0.38;83.04;142183.05;1722189;82;21071;-54
2022/01/21 09:06:28;;;;;;;19.60;7.50;;;;;;;-0.42;83.23;142173.09;1726670;82;21017;-54
2022/01/21 09:08:52;;;;;;;14.07;5.87;;;;;;;-0.46;83.31;142163.13;1736953;81;21052;-55
2022/01/21 09:11:18;;;;;;;12.78;5.87;;;;;;;-0.52;83.49;142148.23;1726484;82;21534;-55
2022/01/21 09:13:45;;;;;;;13.22;6.20;;;;;;;-0.57;83.71;142137.05;1725400;82;20988;-54
2022/01/21 09:16:15;;;;;;;16.32;6.25;;;;;;;-0.69;83.68;142108.50;1735736;82;21056;-55
2022/01/21 09:18:47;;;;;;;14.45;6.42;;;;;;;-0.72;84.35;142101.02;1702110;83;20995;-55
2022/01/21 09:21:18;;;;;;;19.48;7.40;;;;;;;-0.76;84.28;142089.87;1725612;82;21499;-55
2022/01/21 09:23:48;;;;;;;15.72;7.62;;;;;;;-0.79;84.53;142083.66;1703756;83;21025;-55
2022/01/21 09:26:18;;;;;;;14.55;6.15;;;;;;;-0.79;84.59;142082.37;1728165;82;21010;-55
2022/01/21 09:28:46;;;;;;;16.37;6.25;;;;;;;-0.80;84.51;142079.92;1729920;82;21028;-55
2022/01/21 09:31:14;;;;;;;18.02;6.95;;;;;;;-0.82;84.42;142076.17;1705450;83;20964;-56
2022/01/21 09:33:42;;;;;;;16.80;7.87;;;;;;;-0.82;84.56;142076.17;1732460;82;21027;-55
2022/01/21 09:36:11;;;;;;;18.15;7.10;;;;;;;-0.78;84.67;142086.13;1733316;82;21055;-56
2022/01/21 09:38:40;;;;;;;17.10;6.50;;;;;;;-0.77;84.62;142088.59;1727663;82;20977;-55
2022/01/21 09:41:09;;;;;;;22.45;7.90;;;;;;;-0.77;84.82;142087.36;1728258;82;20983;-57
2022/01/21 09:43:39;;;;;;;19.02;7.92;;;;;;;-0.79;85.21;142083.66;1728280;82;20968;-55
2022/01/21 09:46:07;;;;;;;23.65;9.13;;;;;;;-0.76;85.30;142091.11;1730457;82;21000;-55
2022/01/21 09:48:49;;;;;;;19.60;6.78;;;;;;;-0.76;85.49;142091.11;1721805;82;21015;-55
2022/01/21 09:51:06;;;;;;;18.90;7.33;;;;;;;-0.74;85.76;142096.09;1727211;82;21004;-54
2022/01/21 09:53:35;;;;;;;15.48;6.47;;;;;;;-0.77;85.67;142088.59;1734769;82;21056;-54
2022/01/21 09:56:05;;;;;;;21.07;6.12;;;;;;;-0.76;86.04;142089.87;1725643;82;21589;-55
2022/01/21 09:58:33;;;;;;;19.73;7.65;;;;;;;-0.68;86.41;142110.97;1720201;82;21040;-56
2022/01/21 10:01:08;;;;;;;18.00;5.45;;;;;;;-0.59;85.90;142130.84;1730016;82;21570;-56
2022/01/21 10:03:35;;;;;;;17.10;5.25;;;;;;;-0.55;85.18;142142.03;1717704;82;21009;-55
2022/01/21 10:06:03;;;;;;;15.10;4.90;;;;;;;-0.53;84.34;142145.77;1714941;82;21036;-55
2022/01/21 10:08:33;;;;;;;12.33;5.47;;;;;;;-0.51;84.11;142150.70;1712375;82;21017;-55
2022/01/21 10:11:00;;;;;;;19.30;6.20;;;;;;;-0.50;84.00;142153.22;1687088;84;20996;-54
2022/01/21 10:13:30;;;;;;;20.32;5.97;;;;;;;-0.44;83.87;142168.11;1712857;82;21044;-55
2022/01/21 10:15:55;;;;;;;25.00;6.70;;;;;;;-0.46;83.35;142163.13;1728561;82;21023;-55
2022/01/21 10:18:23;;;;;;;22.07;6.60;;;;;;;-0.46;83.92;142163.13;1723289;82;21001;-55
2022/01/21 10:21:12;;;;;;;17.52;6.22;;;;;;;-0.42;83.56;142171.84;1739150;82;20981;-54
2022/01/21 10:23:42;;;;;;;16.77;5.47;;;;;;;-0.36;82.90;142186.75;1739360;82;20989;-55
2022/01/21 10:26:12;;;;;;;16.62;5.70;;;;;;;-0.36;82.19;142187.97;1739484;82;21067;-54
2022/01/21 10:28:43;;;;;;;20.35;7.33;;;;;;;-0.35;82.05;142190.50;1727886;82;20966;-54
2022/01/21 10:31:17;;;;;;;12.53;5.33;;;;;;;-0.26;82.48;142212.83;1729921;82;21475;-54
2022/01/21 10:33:49;;;;;;;19.50;5.87;;;;;;;-0.17;82.71;142232.75;1729546;83;21059;-54
2022/01/21 10:36:26;;;;;;;16.93;5.78;;;;;;;-0.15;82.02;142237.69;1706903;82;20962;-56
2022/01/21 10:39:10;;;;;;;17.62;7.03;;;;;;;-0.15;82.23;142237.69;1731014;82;21502;-55
2022/01/21 10:41:46;;;;;;;19.92;6.22;;;;;;;-0.13;82.65;142243.89;1737473;82;21515;-60
2022/01/21 10:44:19;;;;;;;18.70;6.08;;;;;;;-0.05;83.10;142263.81;1731176;82;20982;-61
2022/01/21 10:47:07;;;;;;;17.77;6.62;;;;;;;-0.06;82.19;142260.06;1729275;82;21467;-55
2022/01/21 10:49:39;;;;;;;20.45;4.42;;;;;;;-0.11;81.86;142247.64;1733246;82;21032;-55
2022/01/21 10:52:09;;;;;;;13.43;5.47;;;;;;;-0.15;81.71;142237.69;1739383;82;21020;-54
2022/01/21 10:54:43;;;;;;;15.23;5.15;;;;;;;-0.18;81.23;142230.23;1739441;82;21056;-56
2022/01/21 10:57:14;;;;;;;19.50;5.30;;;;;;;-0.18;81.28;142231.47;1737892;82;20981;-55
2022/01/21 10:59:58;;;;;;;14.67;4.93;;;;;;;-0.11;81.12;142247.64;1737499;82;21468;-55
2022/01/21 11:02:47;;;;;;;19.65;6.62;;;;;;;-0.06;81.21;142260.06;1737543;82;21334;-55
2022/01/21 11:05:17;;;;;;;24.87;4.92;;;;;;;-0.01;81.35;142273.73;1652624;86;20981;-55
2022/01/21 11:07:58;;;;;;;;;;;;;;;0.01;80.48;142277.48;1676326;85;21472;-55
2022/01/21 11:10:42;;;;;;;26.05;4.92;;;;;;;-0.08;80.86;142256.31;1648165;87;20157;-60
2022/01/21 11:13:19;;;;;;;17.23;4.53;;;;;;;-0.13;80.83;142243.89;1648160;87;21031;-61
2022/01/21 11:16:08;;;;;;;24.05;4.65;;;;;;;-0.13;80.28;142242.66;1711058;83;21450;-60
2022/01/21 11:18:54;;;;;;;23.67;5.83;;;;;;;-0.14;80.19;142241.44;1730378;82;21001;-58
2022/01/21 11:21:23;;;;;;;30.32;3.92;;;;;;;-0.10;79.56;142250.11;1727683;82;21036;-59
2022/01/21 11:23:50;;;;;;;37.23;5.15;;;;;;;-0.10;78.98;142250.11;1719109;83;21439;-58
2022/01/21 11:26:19;;;;;;;21.82;4.33;;;;;;;-0.13;79.25;142242.66;1719197;83;20985;-58
2022/01/21 11:28:49;;;;;;;26.00;4.78;;;;;;;-0.17;77.84;142232.75;1731222;82;21016;-58
2022/01/21 11:31:20;;;;;;;38.35;4.95;;;;;;;-0.19;77.76;142229.00;1736028;82;20941;-57
2022/01/21 11:33:49;;;;;;;32.50;4.30;;;;;;;-0.13;78.11;142242.66;1738680;82;20969;-60
2022/01/21 11:36:16;;;;;;;16.75;4.40;;;;;;;-0.08;77.45;142255.09;1733089;82;21086;-62
2022/01/21 11:38:44;;;;;;;19.35;3.62;;;;;;;-0.10;76.28;142251.39;1726008;82;21028;-62
2022/01/21 11:41:18;;;;;;;15.85;4.05;;;;;;;-0.13;76.22;142243.89;1731725;83;21052;-63
2022/01/21 11:43:49;;;;;;;26.57;4.35;;;;;;;-0.05;76.72;142263.81;1730497;82;20990;-62
2022/01/21 11:48:58;;;;;;;21.85;4.28;;;;;;;0.08;76.95;142294.89;1716584;82;20979;-63
2022/01/21 11:51:31;;;;;;;24.30;5.47;;;;;;;0.14;77.49;142309.78;1706663;84;21006;-63
2022/01/21 11:54:05;;;;;;;10.90;4.08;;;;;;;0.21;77.75;142327.20;1739228;82;20984;-71
2022/01/21 11:56:59;;;;;;;19.52;5.05;;;;;;;0.35;80.49;142359.52;1739993;82;21134;-71
2022/01/21 11:59:47;;;;;;;17.07;4.87;;;;;;;0.63;80.59;142427.91;1740802;82;21035;-54
2022/01/21 12:02:21;;;;;;;19.62;4.08;;;;;;;0.71;78.36;142447.80;1740962;82;21012;-56
2022/01/21 12:04:55;;;;;;;17.75;4.33;;;;;;;0.56;77.36;142410.48;1733212;82;20955;-57
2022/01/21 12:07:42;;;;;;;18.45;4.50;;;;;;;0.46;77.63;142386.89;1729933;81;21002;-55
2022/01/21 12:10:26;;;;;;;19.50;4.35;;;;;;;0.34;77.19;142358.28;1727823;83;21018;-55
2022/01/21 12:13:06;;;;;;;15.80;4.20;;;;;;;0.28;76.74;142342.09;1728648;82;21050;-55
2022/01/21 12:21:38;;;;;;;19.15;4.62;;;;;;;0.03;75.19;142281.22;1743371;81;21094;-55
2022/01/21 12:24:08;;;;;;;27.05;4.75;;;;;;;-0.05;74.81;142262.53;1743324;81;21469;-55
2022/01/21 12:26:35;;;;;;;16.12;3.72;;;;;;;-0.09;74.65;142252.63;1739836;81;21885;-55
2022/01/21 12:29:16;;;;;;;15.83;4.03;;;;;;;-0.11;74.65;142247.64;1731844;82;21020;-55